createdAt,value
2022-10-17T10:37:52.771Z,11.35
2022-10-17T10:45:04.566Z,12.43
2022-10-17T10:47:20.304Z,13.00
2022-10-17T10:52:23.564Z,14.00
2022-10-17T10:53:59.892Z,10.57
2022-10-17T11:01:55.133Z,16.42
2022-10-17T11:03:54.123Z,12.30
2022-10-17T11:05:47.300Z,12.95
2022-10-17T11:08:14.000Z,13.80
2022-10-17T11:10:28.551Z,15.65
2022-10-17T11:12:28.612Z,15.45
2022-10-17T11:14:28.002Z,14.20
2022-10-17T11:16:34.068Z,11.98
2022-10-17T11:18:29.161Z,15.25
2022-10-17T11:20:28.856Z,12.65
2022-10-17T11:22:18.524Z,14.32
2022-10-17T11:24:16.158Z,16.15
2022-10-17T11:25:56.248Z,14.13
2022-10-17T11:27:53.290Z,15.52
2022-10-17T11:32:02.818Z,12.82
2022-10-17T11:33:59.598Z,16.70
2022-10-17T11:35:53.041Z,13.38
2022-10-17T11:37:34.799Z,13.13
2022-10-17T11:39:43.534Z,13.85
2022-10-17T11:41:19.545Z,14.43
2022-10-17T11:42:52.517Z,16.52
2022-10-17T11:44:36.565Z,14.15
2022-10-17T11:46:26.358Z,16.10
2022-10-17T11:48:34.444Z,17.63
2022-10-17T11:52:59.432Z,13.02
2022-10-17T11:54:32.841Z,15.48
2022-10-17T11:56:18.632Z,11.50
2022-10-17T12:07:28.872Z,12.80
2022-10-17T12:13:52.894Z,17.65
2022-10-17T16:34:43.246Z,19.60
2022-10-17T16:36:23.759Z,18.63
2022-10-17T16:37:58.190Z,18.10
2022-10-17T16:39:30.267Z,19.83
2022-10-17T16:41:02.437Z,19.08
2022-10-17T16:42:38.475Z,21.15
2022-10-17T16:44:43.727Z,24.33
2022-10-17T16:46:23.530Z,23.17
2022-10-17T16:47:57.550Z,22.38
2022-10-17T16:52:02.876Z,22.95
2022-10-17T17:22:52.976Z,25.38
2022-10-17T17:24:29.946Z,20.38
2022-10-17T17:26:24.875Z,27.23
2022-10-17T17:28:14.038Z,23.10
2022-10-17T17:29:46.843Z,20.40
